Time;durP1;ratioP1;P1;durP2;ratioP2;P2;SDS_P1;SDS_P2;PMS_P1;PMS_P2;Temp;Humidity;BMP_temperature;BMP_pressure;BME280_temperature;BME280_humidity;BME280_pressure;Samples;Min_cycle;Max_cycle;Signal;HPM_P1;HPM_P2
2023/12/05 00:00:44;;;;;;;;;;;;;;;1.25;100.00;99858.22;5044234;28;2010;-72
2023/12/05 00:03:09;;;;;;;;;;;;;;;1.27;100.00;99853.84;5041792;28;1113;-74
2023/12/05 00:05:34;;;;;;;;;;;;;;;1.29;100.00;99854.56;5057477;28;1148;-72
2023/12/05 00:07:59;;;;;;;;;;;;;;;1.27;100.00;99846.19;5046303;28;1029;-74
2023/12/05 00:10:25;;;;;;;;;;;;;;;1.29;100.00;99854.56;5041536;28;1427;-72
2023/12/05 00:12:50;;;;;;;;;;;;;;;1.28;100.00;99850.38;5044780;28;1152;-74
2023/12/05 00:15:15;;;;;;;;;;;;;;;1.30;100.00;99853.66;5043302;28;1153;-73
2023/12/05 00:17:40;;;;;;;;;;;;;;;1.29;100.00;99850.28;5042496;28;1098;-72
2023/12/05 00:20:05;;;;;;;;;;;;;;;1.31;100.00;99852.72;5043950;28;1898;-73
2023/12/05 00:22:31;;;;;;;;;;;;;;;1.32;100.00;99844.19;5034501;28;1217;-73
2023/12/05 00:24:56;;;;;;;;;;;;;;;1.33;100.00;99840.72;5031725;28;1133;-73
2023/12/05 00:27:21;;;;;;;;;;;;;;;1.34;100.00;99839.78;5035892;28;1269;-73
2023/12/05 00:29:49;;;;;;;;;;;;;;;1.35;100.00;99838.88;5033735;28;910;-73
2023/12/05 00:32:15;;;;;;;;;;;;;;;1.35;100.00;99844.00;5041109;28;948;-73
2023/12/05 00:34:40;;;;;;;;;;;;;;;1.36;100.00;99839.69;5045137;28;1070;-72
2023/12/05 00:37:05;;;;;;;;;;;;;;;1.36;100.00;99835.41;5037493;28;1442;-72
2023/12/05 00:39:30;;;;;;;;;;;;;;;1.38;100.00;99833.59;5042643;28;1968;-72
2023/12/05 00:41:56;;;;;;;;;;;;;;;1.37;100.00;99837.03;5037923;28;1131;-73
2023/12/05 00:44:21;;;;;;;;;;;;;;;1.38;100.00;99838.72;5042113;28;1170;-73
2023/12/05 00:46:46;;;;;;;;;;;;;;;1.39;100.00;99835.25;5043593;28;1280;-72
2023/12/05 00:49:11;;;;;;;;;;;;;;;1.40;100.00;99842.00;5042735;28;1338;-73
2023/12/05 00:51:37;;;;;;;;;;;;;;;1.40;100.00;99831.75;5044611;28;1207;-74
2023/12/05 00:54:02;;;;;;;;;;;;;;;1.40;100.00;99831.75;5043148;28;1162;-73
2023/12/05 00:56:27;;;;;;;;;;;;;;;1.41;100.00;99828.28;5041070;28;1055;-73
2023/12/05 00:58:52;;;;;;;;;;;;;;;1.40;100.00;99826.66;5037027;28;1045;-72
2023/12/05 01:01:18;;;;;;;;;;;;;;;1.41;100.00;99822.38;5041606;28;1910;-72
2023/12/05 01:03:43;;;;;;;;;;;;;;;1.41;100.00;99828.28;5042647;28;1223;-72
2023/12/05 01:06:08;;;;;;;;;;;;;;;1.42;100.00;99824.81;5039730;28;1180;-73
2023/12/05 01:08:33;;;;;;;;;;;;;;;1.43;100.00;99826.47;5039910;28;1120;-73
2023/12/05 01:10:59;;;;;;;;;;;;;;;1.45;100.00;99827.22;5041147;28;1247;-72
2023/12/05 01:13:24;;;;;;;;;;;;;;;1.46;100.00;99825.47;5041915;28;1157;-73
2023/12/05 01:15:49;;;;;;;;;;;;;;;1.46;100.00;99818.63;5036128;28;1081;-73
2023/12/05 01:18:15;;;;;;;;;;;;;;;1.47;100.00;99817.69;5040024;28;1085;-73
2023/12/05 01:20:40;;;;;;;;;;;;;;;1.48;100.00;99814.22;5036221;28;1882;-74
2023/12/05 01:23:05;;;;;;;;;;;;;;;1.48;100.00;99824.44;5030465;28;1129;-72
2023/12/05 01:25:30;;;;;;;;;;;;;;;1.49;100.00;99810.78;5042825;28;1138;-76
2023/12/05 01:27:55;;;;;;;;;;;;;;;1.50;100.00;99822.66;5044524;28;1161;-73
2023/12/05 01:30:21;;;;;;;;;;;;;;;1.51;100.00;99824.28;5034928;28;1240;-74
2023/12/05 01:32:46;;;;;;;;;;;;;;;1.52;100.00;99815.69;5040498;28;1360;-73
2023/12/05 01:35:11;;;;;;;;;;;;;;;1.53;100.00;99817.34;5035475;28;978;-74
2023/12/05 01:37:38;;;;;;;;;;;;;;;1.53;100.00;99827.56;5036563;28;1164;-73
2023/12/05 01:40:03;;;;;;;;;;;;;;;1.53;100.00;99817.34;5038285;28;1998;-72
2023/12/05 01:42:29;;;;;;;;;;;;;;;1.55;100.00;99810.41;5038984;28;968;-72
2023/12/05 01:44:55;;;;;;;;;;;;;;;1.56;100.00;99812.06;5036800;28;1085;-73
2023/12/05 01:47:21;;;;;;;;;;;;;;;1.58;100.00;99820.44;5039603;28;1177;-74
2023/12/05 01:49:46;;;;;;;;;;;;;;;1.58;100.00;99820.44;5045552;28;1087;-73
2023/12/05 01:52:12;;;;;;;;;;;;;;;1.58;100.00;99817.88;5042631;28;1157;-72
2023/12/05 01:54:37;;;;;;;;;;;;;;;1.62;100.00;99820.25;5039802;28;1417;-72
2023/12/05 01:57:04;;;;;;;;;;;;;;;1.60;100.00;99821.16;5041944;28;1161;-73
2023/12/05 01:59:30;;;;;;;;;;;;;;;1.59;100.00;99816.16;5035327;28;1973;-73
2023/12/05 02:01:55;;;;;;;;;;;;;;;1.60;100.00;99820.34;5038150;28;1175;-72
2023/12/05 02:04:20;;;;;;;;;;;;;;;1.60;100.00;99822.88;5040837;28;1081;-75
2023/12/05 02:06:47;;;;;;;;;;;;;;;1.62;100.00;99825.38;5042103;28;1202;-73
2023/12/05 02:09:13;;;;;;;;;;;;;;;1.63;100.00;99837.25;5037176;28;1243;-72
2023/12/05 02:11:40;;;;;;;;;;;;;;;1.64;100.00;99832.03;5040339;28;1079;-72
2023/12/05 02:14:09;;;;;;;;;;;;;;;1.65;100.00;99835.41;5037397;28;1445;-74
2023/12/05 02:16:44;;;;;;;;;;;;;;;1.67;100.00;99833.59;5039362;28;1145;-72
2023/12/05 02:19:42;;;;;;;;;;;;;;;1.68;100.00;99830.13;5037146;28;1361;-73
2023/12/05 02:22:26;;;;;;;;;;;;;;;1.67;100.00;99828.47;5012076;28;1210;-73
2023/12/05 02:24:56;;;;;;;;;;;;;;;1.68;100.00;99830.94;5036188;28;1357;-75
2023/12/05 02:27:37;;;;;;;;;;;;;;;1.72;100.00;99827.28;5035159;28;1268;-73
2023/12/05 02:30:04;;;;;;;;;;;;;;;1.72;100.00;99829.00;5035469;28;1115;-72
2023/12/05 02:32:30;;;;;;;;;;;;;;;1.73;100.00;99823.00;5039119;28;1188;-73
2023/12/05 02:34:55;;;;;;;;;;;;;;;1.72;100.00;99826.44;5042967;28;1242;-72
2023/12/05 02:37:34;;;;;;;;;;;;;;;1.75;100.00;99818.59;5031763;28;1171;-72
2023/12/05 02:40:04;;;;;;;;;;;;;;;1.75;100.00;99821.97;5031768;28;1918;-72
2023/12/05 02:42:31;;;;;;;;;;;;;;;1.74;100.00;99824.63;5033262;28;1079;-72
2023/12/05 02:44:57;;;;;;;;;;;;;;;1.73;100.00;99817.88;5033724;28;1267;-73
2023/12/05 02:47:24;;;;;;;;;;;;;;;1.75;100.00;99816.03;5033683;28;1276;-74
2023/12/05 02:49:49;;;;;;;;;;;;;;;1.74;100.00;99825.44;5035095;28;1090;-73
2023/12/05 02:52:15;;;;;;;;;;;;;;;1.73;100.00;99817.88;5035966;28;1086;-74
2023/12/05 02:54:40;;;;;;;;;;;;;;;1.78;100.00;99818.41;5030328;28;1322;-72
2023/12/05 02:57:05;;;;;;;;;;;;;;;1.77;100.00;99824.44;5040671;28;1182;-72
2023/12/05 02:59:30;;;;;;;;;;;;;;;1.84;100.00;99815.50;5039337;28;1332;-72
2023/12/05 03:01:55;;;;;;;;;;;;;;;1.80;100.00;99824.25;5033642;28;1959;-72
2023/12/05 03:04:21;;;;;;;;;;;;;;;1.79;100.00;99822.63;5038057;28;1080;-73
2023/12/05 03:06:46;;;;;;;;;;;;;;;1.82;100.00;99827.53;5037490;28;1045;-72
2023/12/05 03:09:12;;;;;;;;;;;;;;;1.80;100.00;99824.25;5032467;28;1049;-72
2023/12/05 03:11:37;;;;;;;;;;;;;;;1.80;100.00;99816.59;5039052;28;1198;-73
2023/12/05 03:14:03;;;;;;;;;;;;;;;1.78;100.00;99820.97;5033791;28;1128;-73
2023/12/05 03:16:28;;;;;;;;;;;;;;;1.77;100.00;99815.00;5036129;28;1452;-74
2023/12/05 03:18:53;;;;;;;;;;;;;;;1.78;100.00;99820.97;5034445;28;1015;-73
2023/12/05 03:21:19;;;;;;;;;;;;;;;1.83;100.00;99818.94;5056389;28;1937;-73
2023/12/05 03:23:44;;;;;;;;;;;;;;;1.78;100.00;99815.88;5043246;28;1299;-74
2023/12/05 03:26:20;;;;;;;;;;;;;;;1.76;100.00;99818.50;5037752;28;1147;-72
2023/12/05 03:28:46;;;;;;;;;;;;;;;1.75;100.00;99810.94;5042455;28;1193;-73
2023/12/05 03:31:11;;;;;;;;;;;;;;;1.74;100.00;99811.84;5040660;28;1399;-72
2023/12/05 03:33:37;;;;;;;;;;;;;;;1.71;100.00;99814.56;5036843;28;1142;-75
2023/12/05 03:36:02;;;;;;;;;;;;;;;1.71;100.00;99819.69;5035611;28;1070;-75
2023/12/05 03:38:27;;;;;;;;;;;;;;;1.69;100.00;99822.34;5040004;28;963;-72
2023/12/05 03:40:52;;;;;;;;;;;;;;;1.67;100.00;99818.25;5043839;28;1973;-72
2023/12/05 03:43:17;;;;;;;;;;;;;;;1.64;100.00;99819.25;5046834;28;1047;-72
2023/12/05 03:45:43;;;;;;;;;;;;;;;1.60;100.00;99802.44;5041609;28;1260;-74
2023/12/05 03:48:08;;;;;;;;;;;;;;;1.62;100.00;99815.97;5043014;28;1479;-73
2023/12/05 03:50:33;;;;;;;;;;;;;;;1.60;100.00;99808.38;5046793;28;1137;-73
2023/12/05 03:52:58;;;;;;;;;;;;;;;1.58;100.00;99815.31;5045871;28;1330;-73
2023/12/05 03:55:23;;;;;;;;;;;;;;;1.56;100.00;99819.72;5046001;28;1180;-72
2023/12/05 03:57:48;;;;;;;;;;;;;;;1.58;100.00;99823.00;5038274;28;1168;-76
2023/12/05 04:00:15;;;;;;;;;;;;;;;1.56;100.00;99827.38;5038254;28;1949;-73
2023/12/05 04:02:40;;;;;;;;;;;;;;;1.56;100.00;99821.47;5035918;28;1015;-73
2023/12/05 04:05:06;;;;;;;;;;;;;;;1.55;100.00;99825.75;5037248;28;1185;-73
2023/12/05 04:07:31;;;;;;;;;;;;;;;1.53;100.00;99822.44;5036847;28;1176;-75
2023/12/05 04:09:57;;;;;;;;;;;;;;;1.53;100.00;99822.44;5044981;28;1141;-72
2023/12/05 04:12:22;;;;;;;;;;;;;;;1.52;100.00;99825.91;5041120;28;1307;-73
2023/12/05 04:14:47;;;;;;;;;;;;;;;1.53;100.00;99832.66;5042718;28;1209;-73
2023/12/05 04:17:12;;;;;;;;;;;;;;;1.48;100.00;99829.56;5042877;28;1061;-72
2023/12/05 04:19:38;;;;;;;;;;;;;;;1.45;100.00;99834.88;5042230;28;1893;-72
2023/12/05 04:22:03;;;;;;;;;;;;;;;1.44;100.00;99830.69;5043405;28;1102;-72
2023/12/05 04:24:28;;;;;;;;;;;;;;;1.48;100.00;99834.66;5047478;28;1308;-72
2023/12/05 04:26:53;;;;;;;;;;;;;;;1.43;100.00;99829.00;5042120;28;1369;-73
2023/12/05 04:29:19;;;;;;;;;;;;;;;1.40;100.00;99836.88;5043707;28;1122;-74
2023/12/05 04:31:44;;;;;;;;;;;;;;;1.38;100.00;99836.16;5043954;28;1009;-73
2023/12/05 04:34:09;;;;;;;;;;;;;;;1.41;100.00;99846.19;5043706;28;1201;-73
2023/12/05 04:36:34;;;;;;;;;;;;;;;1.39;100.00;99840.34;5044719;28;1368;-73
2023/12/05 04:39:00;;;;;;;;;;;;;;;1.38;100.00;99843.81;5043349;28;996;-74
2023/12/05 04:41:26;;;;;;;;;;;;;;;1.36;100.00;99842.25;5044186;28;1934;-72
2023/12/05 04:43:51;;;;;;;;;;;;;;;1.36;100.00;99843.06;5041299;28;1065;-73
2023/12/05 04:46:16;;;;;;;;;;;;;;;1.36;100.00;99850.72;5037332;28;1083;-72
2023/12/05 04:48:41;;;;;;;;;;;;;;;1.37;100.00;99852.38;5038368;28;1066;-72
2023/12/05 04:51:06;;;;;;;;;;;;;;;1.37;100.00;99852.38;5042710;28;1101;-73
2023/12/05 04:53:32;;;;;;;;;;;;;;;1.40;100.00;99857.31;5042540;28;1125;-75
2023/12/05 04:55:57;;;;;;;;;;;;;;;1.35;100.00;99854.22;5039734;28;1115;-74
2023/12/05 04:58:22;;;;;;;;;;;;;;;1.37;100.00;99856.66;5037048;28;1193;-73
2023/12/05 05:00:47;;;;;;;;;;;;;;;1.37;100.00;99852.38;5042108;28;1921;-72
2023/12/05 05:03:13;;;;;;;;;;;;;;;1.33;100.00;99861.16;5041004;28;1211;-76
2023/12/05 05:05:39;;;;;;;;;;;;;;;1.32;100.00;99859.50;5041287;28;1335;-73
2023/12/05 05:08:04;;;;;;;;;;;;;;;1.31;100.00;99868.88;5034078;28;994;-75
2023/12/05 05:10:30;;;;;;;;;;;;;;;1.32;100.00;99869.72;5037463;28;1405;-73
2023/12/05 05:12:55;;;;;;;;;;;;;;;1.33;100.00;99876.47;5039122;28;1091;-73
2023/12/05 05:15:21;;;;;;;;;;;;;;;1.32;100.00;99867.19;5034476;28;1116;-73
2023/12/05 05:17:46;;;;;;;;;;;;;;;1.34;100.00;99867.91;5042972;28;1281;-72
2023/12/05 05:20:12;;;;;;;;;;;;;;;1.34;100.00;99867.91;5044653;28;1957;-72
2023/12/05 05:22:38;;;;;;;;;;;;;;;1.34;100.00;99867.91;5042061;28;1103;-72
2023/12/05 05:25:03;;;;;;;;;;;;;;;1.35;100.00;99872.09;5040358;28;1462;-73
2023/12/05 05:27:28;;;;;;;;;;;;;;;1.37;100.00;99872.00;5037863;28;1303;-73
2023/12/05 05:29:53;;;;;;;;;;;;;;;1.36;100.00;99873.72;5038982;28;1065;-74
2023/12/05 05:32:18;;;;;;;;;;;;;;;1.35;100.00;99869.53;5042533;28;1213;-73
2023/12/05 05:34:44;;;;;;;;;;;;;;;1.35;100.00;99869.53;5039633;28;1103;-73
2023/12/05 05:37:09;;;;;;;;;;;;;;;1.36;100.00;99885.69;5043569;28;1150;-74
2023/12/05 05:39:34;;;;;;;;;;;;;;;1.35;100.00;99879.75;5041539;28;1126;-73
2023/12/05 05:41:59;;;;;;;;;;;;;;;1.33;100.00;99881.59;5037974;28;1950;-72
2023/12/05 05:44:24;;;;;;;;;;;;;;;1.34;100.00;99883.22;5034794;28;1245;-72
2023/12/05 05:46:50;;;;;;;;;;;;;;;1.32;100.00;99885.06;5040025;28;1224;-73
2023/12/05 05:49:15;;;;;;;;;;;;;;;1.30;100.00;99882.56;5040543;28;1347;-72
2023/12/05 05:51:40;;;;;;;;;;;;;;;1.32;100.00;99885.06;5040039;28;1213;-72
2023/12/05 05:54:05;;;;;;;;;;;;;;;1.32;100.00;99895.28;5050950;28;2346;-72
2023/12/05 05:56:37;;;;;;;;;;;;;;;1.30;100.00;99892.78;5042376;28;1204;-73
2023/12/05 05:59:02;;;;;;;;;;;;;;;1.30;100.00;99897.06;5040541;28;993;-73
2023/12/05 06:01:27;;;;;;;;;;;;;;;1.29;100.00;99900.56;5035770;28;1901;-72
2023/12/05 06:03:53;;;;;;;;;;;;;;;1.26;100.00;99896.44;5038744;28;1167;-73
2023/12/05 06:06:18;;;;;;;;;;;;;;;1.22;100.00;99896.72;5039647;28;1197;-73
2023/12/05 06:08:43;;;;;;;;;;;;;;;1.21;100.00;99897.63;5044709;28;1018;-73
2023/12/05 06:11:08;;;;;;;;;;;;;;;1.22;100.00;99899.25;5036442;28;1244;-73
2023/12/05 06:13:34;;;;;;;;;;;;;;;1.22;100.00;99901.81;5032714;28;1168;-72
2023/12/05 06:15:59;;;;;;;;;;;;;;;1.24;100.00;99907.66;5032739;28;1128;-73
2023/12/05 06:18:24;;;;;;;;;;;;;;;1.25;100.00;99906.72;5034729;28;1091;-73
2023/12/05 06:20:51;;;;;;;;;;;;;;;1.25;100.00;99909.28;5039604;28;1902;-73
2023/12/05 06:23:16;;;;;;;;;;;;;;;1.25;100.00;99914.41;5035888;28;1106;-73
2023/12/05 06:25:42;;;;;;;;;;;;;;;1.21;100.00;99912.94;5036659;28;1260;-73
2023/12/05 06:28:08;;;;;;;;;;;;;;;1.20;100.00;99917.22;5038290;28;1005;-72
2023/12/05 06:30:33;;;;;;;;;;;;;;;1.20;100.00;99924.06;5037703;28;1097;-72
2023/12/05 06:32:58;;;;;;;;;;;;;;;1.21;100.00;99918.06;5038725;28;1071;-73
2023/12/05 06:35:23;;;;;;;;;;;;;;;1.21;100.00;99913.78;5042921;28;1393;-72
2023/12/05 06:37:51;;;;;;;;;;;;;;;1.21;100.00;99928.28;5040065;28;1169;-73
2023/12/05 06:40:16;;;;;;;;;;;;;;;1.22;100.00;99924.81;5036672;28;1969;-74
2023/12/05 06:42:41;;;;;;;;;;;;;;;1.23;100.00;99926.44;5037098;28;1179;-72
2023/12/05 06:45:07;;;;;;;;;;;;;;;1.24;100.00;99928.09;5039181;28;1096;-73
2023/12/05 06:47:33;;;;;;;;;;;;;;;1.23;100.00;99932.38;5037676;28;1285;-72
2023/12/05 06:50:01;;;;;;;;;;;;;;;1.26;100.00;99936.47;5038008;28;1099;-72
2023/12/05 06:52:27;;;;;;;;;;;;;;;1.25;100.00;99925.44;5035466;28;1335;-72
2023/12/05 06:54:52;;;;;;;;;;;;;;;1.23;100.00;99937.47;5038531;28;1299;-72
2023/12/05 06:57:17;;;;;;;;;;;;;;;1.20;100.00;99931.72;5038230;28;1097;-74
2023/12/05 06:59:42;;;;;;;;;;;;;;;1.19;100.00;99924.97;5041481;28;1894;-71
2023/12/05 07:02:08;;;;;;;;;;;;;;;1.19;100.00;99930.06;5043068;28;1182;-75
2023/12/05 07:04:33;;;;;;;;;;;;;;;1.17;100.00;99931.91;5043784;28;1335;-74
2023/12/05 07:06:59;;;;;;;;;;;;;;;1.17;100.00;99935.28;5044338;28;1064;-76
2023/12/05 07:09:25;;;;;;;;;;;;;;;1.19;100.00;99935.19;5042045;28;1330;-73
2023/12/05 07:11:50;;;;;;;;;;;;;;;1.19;100.00;99940.28;5035700;28;1758;-73
2023/12/05 07:14:15;;;;;;;;;;;;;;;1.17;100.00;99939.56;5040235;28;1273;-72
2023/12/05 07:16:40;;;;;;;;;;;;;;;1.15;100.00;99954.13;5045980;28;1458;-73
2023/12/05 07:19:06;;;;;;;;;;;;;;;1.14;100.00;99952.50;5038576;28;1415;-74
2023/12/05 07:21:31;;;;;;;;;;;;;;;1.14;100.00;99949.94;5042455;28;1894;-72
2023/12/05 07:23:56;;;;;;;;;;;;;;;1.14;100.00;99960.16;5041757;28;1179;-74
2023/12/05 07:26:22;;;;;;;;;;;;;;;1.14;100.00;99957.59;5044057;28;1453;-73
2023/12/05 07:28:47;;;;;;;;;;;;;;;1.13;100.00;99966.19;5043003;28;1143;-72
2023/12/05 07:31:12;;;;;;;;;;;;;;;1.12;100.00;99969.66;5040015;28;1107;-72
2023/12/05 07:33:37;;;;;;;;;;;;;;;1.10;100.00;99971.47;5038184;28;1438;-72
2023/12/05 07:36:03;;;;;;;;;;;;;;;1.15;100.00;99974.56;5042965;28;957;-75
2023/12/05 07:38:28;;;;;;;;;;;;;;;1.16;100.00;99981.34;5039065;28;1290;-72
2023/12/05 07:40:54;;;;;;;;;;;;;;;1.14;100.00;99993.34;5043205;28;1937;-73
2023/12/05 07:43:19;;;;;;;;;;;;;;;1.11;100.00;99993.53;5041288;28;1056;-74
2023/12/05 07:45:44;;;;;;;;;;;;;;;1.09;100.00;99995.34;5037571;28;1098;-74
2023/12/05 07:48:09;;;;;;;;;;;;;;;1.05;100.00;100005.75;5041508;28;1150;-74
2023/12/05 07:50:35;;;;;;;;;;;;;;;1.05;100.00;100002.38;5034831;28;1087;-73
2023/12/05 07:53:01;;;;;;;;;;;;;;;1.03;100.00;100002.47;5036928;28;1172;-75
2023/12/05 07:55:26;;;;;;;;;;;;;;;1.02;100.00;100011.00;5038758;28;1208;-73
2023/12/05 07:57:51;;;;;;;;;;;;;;;1.02;100.00;100005.06;5043227;28;1094;-73
2023/12/05 08:00:17;;;;;;;;;;;;;;;1.02;100.00;100016.09;5044880;28;1898;-72
2023/12/05 08:02:45;;;;;;;;;;;;;;;1.01;100.00;100018.75;5039390;28;1160;-72
2023/12/05 08:05:11;;;;;;;;;;;;;;;0.99;100.00;100016.28;5043033;28;1196;-73
2023/12/05 08:07:36;;;;;;;;;;;;;;;1.00;100.00;100028.16;5042701;28;1196;-72
2023/12/05 08:10:01;;;;;;;;;;;;;;;1.00;100.00;100028.16;5037517;28;1221;-73
2023/12/05 08:12:26;;;;;;;;;;;;;;;0.98;100.00;100029.97;5040226;28;1136;-73
2023/12/05 08:14:52;;;;;;;;;;;;;;;0.97;100.00;100030.84;5045170;28;1204;-72
2023/12/05 08:17:17;;;;;;;;;;;;;;;0.96;100.00;100031.75;5045901;28;1095;-72
2023/12/05 08:19:42;;;;;;;;;;;;;;;0.95;100.00;100045.44;5046092;28;1822;-73
2023/12/05 08:22:07;;;;;;;;;;;;;;;0.94;100.00;100043.81;5045936;28;1894;-73
2023/12/05 08:24:32;;;;;;;;;;;;;;;0.95;100.00;100050.56;5047903;28;1093;-73
2023/12/05 08:26:58;;;;;;;;;;;;;;;0.93;100.00;100052.38;5039677;28;1085;-74
2023/12/05 08:29:23;;;;;;;;;;;;;;;0.91;100.00;100053.34;5038781;28;1125;-72
2023/12/05 08:31:48;;;;;;;;;;;;;;;0.90;100.00;100052.53;5037564;28;1104;-73
2023/12/05 08:34:14;;;;;;;;;;;;;;;0.91;100.00;100059.28;5033380;28;1629;-72
2023/12/05 08:36:42;;;;;;;;;;;;;;;0.91;100.00;100061.00;5031309;28;1211;-73
2023/12/05 08:39:08;;;;;;;;;;;;;;;0.90;100.00;100057.63;5039462;28;1664;-72
2023/12/05 08:41:33;;;;;;;;;;;;;;;0.90;100.00;100065.28;5038792;28;1906;-74
2023/12/05 08:43:58;;;;;;;;;;;;;;;0.91;100.00;100064.38;5034443;28;1059;-72
2023/12/05 08:46:24;;;;;;;;;;;;;;;0.91;100.00;100059.28;5037153;28;1267;-74
2023/12/05 08:48:49;;;;;;;;;;;;;;;0.92;100.00;100066.06;5029867;28;1219;-72
2023/12/05 08:51:14;;;;;;;;;;;;;;;0.92;100.00;100066.06;5034820;28;1248;-74
2023/12/05 08:53:39;;;;;;;;;;;;;;;0.93;100.00;100072.78;5032608;28;1109;-73
2023/12/05 08:56:05;;;;;;;;;;;;;;;0.93;100.00;100072.78;5045918;28;1160;-73
2023/12/05 08:58:30;;;;;;;;;;;;;;;0.91;100.00;100077.16;5040008;28;1297;-72
2023/12/05 09:00:55;;;;;;;;;;;;;;;0.92;100.00;100070.31;5041033;28;1901;-72
2023/12/05 09:03:20;;;;;;;;;;;;;;;0.91;100.00;100074.59;5041657;28;1191;-73
2023/12/05 09:05:45;;;;;;;;;;;;;;;0.91;100.00;100074.59;5039941;28;1290;-72
2023/12/05 09:08:10;;;;;;;;;;;;;;;0.91;100.00;100074.59;5057468;28;1356;-76
2023/12/05 09:10:36;;;;;;;;;;;;;;;0.91;100.00;100073.78;5047771;28;1424;-74
2023/12/05 09:13:01;;;;;;;;;;;;;;;0.91;100.00;100074.59;5053088;28;1259;-73
2023/12/05 09:15:26;;;;;;;;;;;;;;;0.92;100.00;100080.53;5045626;28;1138;-72
2023/12/05 09:17:51;;;;;;;;;;;;;;;0.93;100.00;100087.28;5044686;28;1098;-74
2023/12/05 09:20:18;;;;;;;;;;;;;;;0.93;100.00;100085.56;5045772;28;1949;-72
2023/12/05 09:22:43;;;;;;;;;;;;;;;0.94;100.00;100084.66;5042094;28;1512;-73
2023/12/05 09:25:09;;;;;;;;;;;;;;;0.95;100.00;100091.41;5045222;28;1113;-72
2023/12/05 09:27:34;;;;;;;;;;;;;;;0.98;100.00;100091.25;5042770;28;1110;-72
2023/12/05 09:29:59;;;;;;;;;;;;;;;1.01;100.00;100098.72;5034167;28;1191;-72
2023/12/05 09:32:24;;;;;;;;;;;;;;;1.02;100.00;100094.44;5052398;28;1243;-72
2023/12/05 09:34:49;;;;;;;;;;;;;;;1.03;100.00;100099.50;5036179;28;1194;-74
2023/12/05 09:37:15;;;;;;;;;;;;;;;1.05;100.00;100113.00;5034638;28;1072;-72
2023/12/05 09:39:40;;;;;;;;;;;;;;;1.08;100.00;100113.72;5027027;28;1121;-74
2023/12/05 09:42:06;;;;;;;;;;;;;;;1.09;100.00;100110.25;5031193;28;1938;-73
2023/12/05 09:44:35;;;;;;;;;;;;;;;1.06;100.00;100114.63;5034361;28;1332;-73
2023/12/05 09:47:04;;;;;;;;;;;;;;;1.08;100.00;100118.81;5036071;28;1061;-73
2023/12/05 09:49:30;;;;;;;;;;;;;;;1.08;100.00;100127.31;5041886;28;1378;-72
2023/12/05 09:51:55;;;;;;;;;;;;;;;1.09;100.00;100135.78;5042222;28;1087;-72
2023/12/05 09:54:21;;;;;;;;;;;;;;;1.06;100.00;100129.94;5038135;28;1134;-73
2023/12/05 09:56:47;;;;;;;;;;;;;;;1.05;100.00;100135.97;5039254;28;1294;-73
2023/12/05 09:59:13;;;;;;;;;;;;;;;1.04;100.00;100133.50;5043604;28;1168;-72
2023/12/05 10:01:39;;;;;;;;;;;;;;;1.03;100.00;100132.69;5040058;28;1902;-72
2023/12/05 10:04:09;;;;;;;;;;;;;;;1.07;100.00;100141.00;5039661;28;1084;-72
2023/12/05 10:06:36;;;;;;;;;;;;;;;1.08;100.00;100141.81;5042947;28;1456;-73
2023/12/05 10:09:02;;;;;;;;;;;;;;;1.08;100.00;100141.81;5042257;28;1149;-73
2023/12/05 10:11:28;;;;;;;;;;;;;;;1.09;100.00;100151.13;5040771;28;1391;-72
2023/12/05 10:13:53;;;;;;;;;;;;;;;1.08;100.00;100157.13;5043933;28;1141;-72
2023/12/05 10:16:19;;;;;;;;;;;;;;;1.10;100.00;100147.69;5037634;28;1261;-72
2023/12/05 10:18:44;;;;;;;;;;;;;;;1.08;100.00;100152.84;5038299;28;1125;-74
2023/12/05 10:21:09;;;;;;;;;;;;;;;1.05;100.00;100153.03;5042321;28;1981;-72
2023/12/05 10:23:35;;;;;;;;;;;;;;;1.03;100.00;100149.72;5037436;28;1045;-76
2023/12/05 10:26:00;;;;;;;;;;;;;;;1.04;100.00;100156.50;5039857;28;1067;-75
2023/12/05 10:28:25;;;;;;;;;;;;;;;1.05;100.00;100155.56;5039108;28;1048;-72
2023/12/05 10:30:50;;;;;;;;;;;;;;;1.06;100.00;100155.50;5041405;28;1242;-74
2023/12/05 10:33:16;;;;;;;;;;;;;;;1.05;100.00;100169.16;5038841;28;1404;-74
2023/12/05 10:35:43;;;;;;;;;;;;;;;1.07;100.00;100176.75;5029374;28;1276;-73
2023/12/05 10:38:09;;;;;;;;;;;;;;;1.08;100.00;100177.56;5035159;28;1022;-75
2023/12/05 10:40:56;;;;;;;;;;;;;;;1.05;100.00;100179.38;5037631;28;1967;-75
2023/12/05 10:43:23;;;;;;;;;;;;;;;1.06;100.00;100175.91;5034704;28;1222;-74
2023/12/05 10:45:48;;;;;;;;;;;;;;;1.08;100.00;100172.44;5024944;28;1126;-73
2023/12/05 10:48:14;;;;;;;;;;;;;;;1.06;100.00;100175.09;5027818;28;1162;-74
2023/12/05 10:50:39;;;;;;;;;;;;;;;1.03;100.00;100181.19;5030838;28;1235;-74
2023/12/05 10:53:06;;;;;;;;;;;;;;;1.04;100.00;100180.28;5037560;28;1154;-73
2023/12/05 10:55:31;;;;;;;;;;;;;;;1.02;100.00;100184.63;5036392;28;1193;-73
2023/12/05 10:57:56;;;;;;;;;;;;;;;1.04;100.00;100182.03;5049085;28;1426;-74
2023/12/05 11:00:22;;;;;;;;;;;;;;;1.00;100.00;100186.44;5044075;28;1963;-73
2023/12/05 11:02:48;;;;;;;;;;;;;;;0.96;100.00;100199.44;5043006;28;1211;-73
2023/12/05 11:05:14;;;;;;;;;;;;;;;0.94;100.00;100194.44;5040038;28;1180;-73
2023/12/05 11:07:39;;;;;;;;;;;;;;;0.93;100.00;100195.34;5045154;28;1168;-73
2023/12/05 11:10:05;;;;;;;;;;;;;;;0.93;100.00;100195.34;5044652;28;1078;-73
2023/12/05 11:12:31;;;;;;;;;;;;;;;0.94;100.00;100196.16;5044259;28;1246;-73
2023/12/05 11:14:58;;;;;;;;;;;;;;;0.93;100.00;100204.72;5036590;28;1285;-72
2023/12/05 11:17:27;;;;;;;;;;;;;;;0.93;100.00;100207.28;5045446;28;1379;-73
2023/12/05 11:19:56;;;;;;;;;;;;;;;1.02;100.00;100215.28;5043890;28;1092;-75
2023/12/05 11:22:40;;;;;;;;;;;;;;;0.96;100.00;100213.03;5038556;28;1145;-73
2023/12/05 11:25:05;;;;;;;;;;;;;;;0.94;100.00;100207.19;5043439;28;982;-74
2023/12/05 11:27:39;;;;;;;;;;;;;;;0.95;100.00;100213.13;5042042;28;1358;-73
2023/12/05 11:30:20;;;;;;;;;;;;;;;0.96;100.00;100210.50;5040033;28;1245;-72
2023/12/05 11:33:02;;;;;;;;;;;;;;;0.95;100.00;100224.16;5044730;28;2281;-72
2023/12/05 11:35:35;;;;;;;;;;;;;;;0.94;100.00;100222.53;5038766;28;1028;-73
2023/12/05 11:38:14;;;;;;;;;;;;;;;0.95;100.00;100229.28;5043460;28;1109;-72
2023/12/05 11:40:39;;;;;;;;;;;;;;;0.95;100.00;100229.28;5041650;28;1894;-73
2023/12/05 11:43:05;;;;;;;;;;;;;;;0.95;100.00;100234.38;5046813;28;1020;-74
2023/12/05 11:45:31;;;;;;;;;;;;;;;0.95;100.00;100231.81;5046936;28;1130;-73
2023/12/05 11:47:58;;;;;;;;;;;;;;;1.04;100.00;100233.91;5041117;28;1170;-73
2023/12/05 11:50:23;;;;;;;;;;;;;;;0.99;100.00;100235.88;5039604;28;1373;-73
2023/12/05 11:52:49;;;;;;;;;;;;;;;1.12;100.00;100245.47;5034871;28;1084;-72
2023/12/05 11:55:14;;;;;;;;;;;;;;;1.01;100.00;100244.28;5047501;28;1280;-73
2023/12/05 11:57:40;;;;;;;;;;;;;;;0.99;100.00;100242.72;5039544;28;1066;-73
2023/12/05 12:00:06;;;;;;;;;;;;;;;1.02;100.00;100240.81;5039262;28;1886;-72
2023/12/05 12:02:31;;;;;;;;;;;;;;;1.11;100.00;100256.59;5043379;28;1440;-73
2023/12/05 12:05:00;;;;;;;;;;;;;;;1.01;100.00;100249.38;5041118;28;1182;-74
2023/12/05 12:07:25;;;;;;;;;;;;;;;1.02;100.00;100245.91;5046144;28;1360;-73
2023/12/05 12:09:51;;;;;;;;;;;;;;;0.99;100.00;100251.19;5043563;28;1424;-73
2023/12/05 12:12:16;;;;;;;;;;;;;;;0.99;100.00;100256.31;5047989;28;1165;-73
2023/12/05 12:14:42;;;;;;;;;;;;;;;0.98;100.00;100259.78;5042708;28;1134;-72
2023/12/05 12:17:11;;;;;;;;;;;;;;;0.98;100.00;100259.78;5039371;28;1417;-74
2023/12/05 12:19:37;;;;;;;;;;;;;;;1.03;100.00;100257.81;5042122;28;990;-74
2023/12/05 12:22:09;;;;;;;;;;;;;;;0.99;100.00;100261.41;5040960;28;1994;-74
2023/12/05 12:24:36;;;;;;;;;;;;;;;0.99;100.00;100261.41;5040402;28;1108;-72
2023/12/05 12:27:03;;;;;;;;;;;;;;;0.97;100.00;100273.41;5034201;28;1141;-73
2023/12/05 12:29:28;;;;;;;;;;;;;;;1.00;100.00;100273.28;5039657;28;1158;-72
2023/12/05 12:32:06;;;;;;;;;;;;;;;0.96;100.00;100270.94;5045578;28;1155;-73
2023/12/05 12:34:31;;;;;;;;;;;;;;;0.94;100.00;100273.59;5041038;28;1192;-73
2023/12/05 12:36:57;;;;;;;;;;;;;;;0.99;100.00;100265.69;5041670;28;1487;-72
2023/12/05 12:39:33;;;;;;;;;;;;;;;0.96;100.00;100261.56;5037049;28;1264;-73
2023/12/05 12:42:00;;;;;;;;;;;;;;;1.02;100.00;100274.00;5043390;28;1922;-71
2023/12/05 12:44:25;;;;;;;;;;;;;;;0.93;100.00;100266.84;5038337;28;1169;-72
2023/12/05 12:46:51;;;;;;;;;;;;;;;0.92;100.00;100275.41;5039336;28;1653;-72